createdAt,value
2017-05-15T00:00:17.948Z,2.96
2017-05-15T00:02:48.615Z,3.62
2017-05-15T00:05:19.464Z,4.12
2017-05-15T00:07:50.281Z,3.84
2017-05-15T00:10:21.064Z,3.02
2017-05-15T00:12:51.801Z,3.46
2017-05-15T00:15:22.539Z,3.66
2017-05-15T00:17:53.511Z,6.40
2017-05-15T00:20:25.325Z,3.72
2017-05-15T00:22:57.092Z,2.24
2017-05-15T00:25:28.764Z,2.66
2017-05-15T00:27:59.717Z,4.66
2017-05-15T00:30:30.370Z,6.82
2017-05-15T00:33:01.294Z,4.76
2017-05-15T00:35:32.438Z,4.04
2017-05-15T00:38:03.163Z,4.32
2017-05-15T00:40:41.055Z,5.42
2017-05-15T00:43:12.021Z,3.20
2017-05-15T00:45:42.917Z,6.80
2017-05-15T00:48:13.832Z,4.74
2017-05-15T00:50:44.528Z,6.58
2017-05-15T00:53:15.347Z,7.50
2017-05-15T00:55:46.067Z,4.00
2017-05-15T00:58:16.724Z,3.58
2017-05-15T01:00:47.521Z,4.24
2017-05-15T01:03:18.466Z,4.26
2017-05-15T01:05:50.131Z,3.36
2017-05-15T01:08:20.839Z,5.24
2017-05-15T01:10:51.605Z,3.54
2017-05-15T01:13:22.185Z,3.76
2017-05-15T01:15:52.242Z,4.66
2017-05-15T01:18:22.997Z,5.00
2017-05-15T01:20:54.228Z,3.08
2017-05-15T01:23:25.165Z,3.54
2017-05-15T01:25:56.962Z,2.74
2017-05-15T01:28:27.731Z,4.58
2017-05-15T01:30:58.645Z,4.10
2017-05-15T01:33:29.487Z,2.52
2017-05-15T01:36:00.224Z,3.06
2017-05-15T01:38:31.155Z,3.94
2017-05-15T01:41:01.842Z,3.74
2017-05-15T01:43:32.772Z,4.60
2017-05-15T01:46:03.576Z,5.96
2017-05-15T01:48:34.600Z,6.18
2017-05-15T01:51:05.400Z,5.02
2017-05-15T01:53:36.414Z,2.78
2017-05-15T01:56:07.031Z,2.72
2017-05-15T01:58:37.780Z,2.92
2017-05-15T02:01:09.261Z,6.00
2017-05-15T02:03:39.574Z,3.42
2017-05-15T02:06:09.661Z,4.18
2017-05-15T02:08:40.527Z,6.22
2017-05-15T02:11:10.682Z,5.40
2017-05-15T02:13:41.364Z,7.04
2017-05-15T02:16:12.015Z,4.74
2017-05-15T02:18:42.889Z,6.36
2017-05-15T02:21:14.824Z,5.10
2017-05-15T02:23:46.049Z,7.90
2017-05-15T02:26:16.775Z,10.30
2017-05-15T02:28:47.943Z,7.24
2017-05-15T02:31:19.022Z,11.66
2017-05-15T02:33:49.654Z,5.22
2017-05-15T02:36:20.468Z,5.04
2017-05-15T02:38:51.184Z,4.28
2017-05-15T02:41:21.721Z,5.56
2017-05-15T02:43:52.975Z,3.74
2017-05-15T02:46:23.804Z,5.72
2017-05-15T02:48:55.096Z,7.60
2017-05-15T02:51:25.702Z,3.34
2017-05-15T02:53:56.392Z,8.04
2017-05-15T02:56:27.296Z,3.60
2017-05-15T02:58:58.083Z,4.20
2017-05-15T03:01:28.927Z,5.94
2017-05-15T03:03:59.975Z,5.90
2017-05-15T03:06:30.530Z,5.24
2017-05-15T03:09:01.301Z,4.98
2017-05-15T03:11:32.177Z,5.02
2017-05-15T03:14:03.108Z,5.42
2017-05-15T03:16:33.964Z,4.44
2017-05-15T03:19:04.770Z,7.64
2017-05-15T03:21:36.455Z,6.12
2017-05-15T03:24:07.591Z,5.42
2017-05-15T03:26:38.213Z,4.62
2017-05-15T03:29:11.711Z,6.36
2017-05-15T03:31:42.703Z,5.54
2017-05-15T03:34:13.724Z,6.00
2017-05-15T03:36:44.331Z,3.46
2017-05-15T03:39:15.323Z,3.52
2017-05-15T03:41:46.507Z,10.06
2017-05-15T03:44:17.192Z,3.34
2017-05-15T03:46:47.972Z,2.18
2017-05-15T03:49:18.896Z,5.62
2017-05-15T03:51:49.636Z,5.84
2017-05-15T03:54:20.566Z,6.12
2017-05-15T03:56:51.047Z,4.90
2017-05-15T03:59:22.161Z,3.02
2017-05-15T04:01:53.263Z,5.66
2017-05-15T04:04:23.984Z,4.94
2017-05-15T04:06:54.876Z,6.28
2017-05-15T04:09:25.938Z,3.54
2017-05-15T04:11:56.516Z,4.60
2017-05-15T04:14:34.663Z,4.50
2017-05-15T04:17:05.333Z,4.42
2017-05-15T04:19:35.915Z,7.28
2017-05-15T04:22:08.002Z,3.48
2017-05-15T04:24:38.877Z,6.94
2017-05-15T04:27:09.436Z,3.94
2017-05-15T04:29:41.065Z,5.24
2017-05-15T04:32:11.778Z,6.54
2017-05-15T04:34:42.473Z,2.74
2017-05-15T04:37:13.132Z,3.90
2017-05-15T04:39:44.162Z,3.86
2017-05-15T04:42:14.778Z,3.36
2017-05-15T04:44:45.950Z,5.38
2017-05-15T04:47:16.743Z,6.42
2017-05-15T04:49:48.259Z,5.58
2017-05-15T04:52:18.844Z,2.36
2017-05-15T04:54:50.024Z,9.66
2017-05-15T04:57:20.675Z,2.58
2017-05-15T04:59:51.512Z,2.74
2017-05-15T05:02:22.254Z,3.84
2017-05-15T05:04:53.147Z,3.26
2017-05-15T05:07:24.831Z,5.46
2017-05-15T05:09:55.626Z,6.02
2017-05-15T05:12:26.368Z,3.30
2017-05-15T05:14:57.183Z,5.32
2017-05-15T05:17:27.736Z,2.68
2017-05-15T05:20:13.525Z,5.06
2017-05-15T05:22:52.240Z,2.68
2017-05-15T05:25:25.943Z,5.90
2017-05-15T05:28:00.901Z,4.10
2017-05-15T05:30:38.171Z,2.42
2017-05-15T05:33:20.626Z,4.60
2017-05-15T05:36:12.138Z,4.54
2017-05-15T05:39:05.116Z,4.16
2017-05-15T05:41:54.393Z,3.90
2017-05-15T05:44:25.506Z,2.54
2017-05-15T05:46:56.195Z,1.82
2017-05-15T05:49:27.119Z,2.28
2017-05-15T05:51:57.765Z,7.72
2017-05-15T05:54:43.608Z,3.30
2017-05-15T05:57:25.702Z,3.52
2017-05-15T06:00:21.262Z,4.10
2017-05-15T06:03:12.647Z,2.28
2017-05-15T06:05:54.593Z,2.72
2017-05-15T06:08:36.459Z,4.86
2017-05-15T06:11:18.798Z,3.18
2017-05-15T06:14:00.868Z,1.76
2017-05-15T06:16:42.095Z,2.36
2017-05-15T06:19:11.495Z,5.36
2017-05-15T06:21:41.532Z,2.86
2017-05-15T06:24:24.664Z,7.12
2017-05-15T06:26:57.652Z,4.50
2017-05-15T06:29:28.086Z,2.28
2017-05-15T06:31:58.647Z,4.08
2017-05-15T06:34:29.094Z,8.42
2017-05-15T06:36:59.786Z,2.32
2017-05-15T06:39:41.500Z,3.12
2017-05-15T06:42:23.234Z,3.24
2017-05-15T06:44:53.980Z,5.32
2017-05-15T06:47:24.284Z,5.48
2017-05-15T06:49:59.845Z,2.78
2017-05-15T06:52:30.043Z,7.76
2017-05-15T06:55:00.234Z,2.80
2017-05-15T06:57:31.691Z,5.98
2017-05-15T07:00:03.455Z,4.18
2017-05-15T07:02:33.970Z,2.46
2017-05-15T07:05:05.572Z,2.18
2017-05-15T07:07:35.782Z,2.26
2017-05-15T07:10:06.599Z,3.22
2017-05-15T07:12:37.509Z,3.30
2017-05-15T07:15:08.354Z,3.58
2017-05-15T07:17:39.236Z,2.44
2017-05-15T07:20:09.979Z,5.30
2017-05-15T07:22:41.062Z,4.44
2017-05-15T07:25:13.634Z,2.74
2017-05-15T07:27:44.326Z,5.66
2017-05-15T07:30:15.509Z,3.80
2017-05-15T07:32:46.356Z,3.22
2017-05-15T07:35:17.343Z,4.02
2017-05-15T07:37:47.895Z,4.74
2017-05-15T07:40:18.674Z,2.44
2017-05-15T07:42:49.260Z,3.10
2017-05-15T07:45:19.848Z,3.24
2017-05-15T07:47:50.807Z,5.64
2017-05-15T07:50:21.474Z,2.84
2017-05-15T07:52:52.440Z,5.00
2017-05-15T07:55:23.490Z,2.88
2017-05-15T07:57:54.340Z,2.38
2017-05-15T08:00:25.188Z,6.18
2017-05-15T08:02:55.959Z,3.12
2017-05-15T08:05:26.747Z,2.82
2017-05-15T08:07:57.595Z,2.10
2017-05-15T08:10:28.869Z,5.26
2017-05-15T08:12:59.815Z,2.98
2017-05-15T08:15:30.410Z,3.82
2017-05-15T08:18:01.032Z,4.06
2017-05-15T08:20:32.027Z,3.84
2017-05-15T08:23:02.988Z,3.78
2017-05-15T08:25:34.766Z,1.90
2017-05-15T08:28:05.854Z,1.58
2017-05-15T08:30:36.600Z,3.94
2017-05-15T08:33:07.383Z,3.00
2017-05-15T08:35:38.199Z,2.92
2017-05-15T08:38:08.996Z,2.56
2017-05-15T08:40:39.995Z,1.88
2017-05-15T08:43:10.751Z,2.10
2017-05-15T08:45:41.478Z,2.30
2017-05-15T08:48:12.132Z,4.42
2017-05-15T08:50:42.882Z,3.14
2017-05-15T08:53:13.598Z,2.36
2017-05-15T08:55:44.700Z,2.80
2017-05-15T08:58:15.222Z,6.24
2017-05-15T09:00:54.326Z,3.06
2017-05-15T09:03:26.310Z,4.66
2017-05-15T09:05:57.228Z,2.02
2017-05-15T09:08:29.547Z,4.14
2017-05-15T09:11:00.295Z,2.32
2017-05-15T09:13:30.859Z,4.14
2017-05-15T09:16:01.420Z,2.92
2017-05-15T09:18:32.023Z,3.98
2017-05-15T09:21:02.985Z,2.00
2017-05-15T09:23:33.670Z,3.60
2017-05-15T09:26:05.460Z,4.24
2017-05-15T09:28:35.976Z,2.54
2017-05-15T09:31:06.781Z,3.60
2017-05-15T09:33:37.449Z,2.90
2017-05-15T09:36:08.090Z,3.44
2017-05-15T09:38:38.857Z,2.30
2017-05-15T09:41:12.553Z,2.30
2017-05-15T09:43:43.429Z,2.60
2017-05-15T09:46:14.159Z,2.76
2017-05-15T09:48:44.910Z,5.38
2017-05-15T09:51:15.398Z,7.10
2017-05-15T09:53:46.131Z,9.22
2017-05-15T09:56:16.960Z,2.90
2017-05-15T09:58:47.757Z,4.16
2017-05-15T10:01:18.786Z,5.02
2017-05-15T10:03:49.477Z,4.62
2017-05-15T10:06:20.191Z,12.60
2017-05-15T10:08:50.720Z,11.78
2017-05-15T10:11:21.714Z,13.92
2017-05-15T10:13:52.499Z,11.48
2017-05-15T10:16:23.150Z,15.53
2017-05-15T10:18:53.689Z,13.43
2017-05-15T10:21:24.483Z,11.75
2017-05-15T10:23:55.911Z,8.13
2017-05-15T10:26:28.910Z,6.90
2017-05-15T10:28:59.452Z,9.80
2017-05-15T10:31:30.810Z,4.53
2017-05-15T10:34:01.255Z,3.10
2017-05-15T10:36:32.702Z,5.95
2017-05-15T10:39:03.496Z,4.33
2017-05-15T10:41:34.222Z,3.32
2017-05-15T10:44:05.148Z,4.53
2017-05-15T10:46:35.854Z,29.45
2017-05-15T10:49:06.351Z,27.95
2017-05-15T10:51:37.117Z,15.92
2017-05-15T10:54:08.068Z,11.47
2017-05-15T10:56:38.870Z,8.98
2017-05-15T10:59:09.515Z,6.80
2017-05-15T11:01:40.237Z,3.98
2017-05-15T11:04:11.028Z,5.38
2017-05-15T11:06:41.994Z,6.50
2017-05-15T11:09:12.794Z,5.35
2017-05-15T11:11:43.602Z,4.15
2017-05-15T11:14:13.769Z,4.97
2017-05-15T11:16:44.461Z,15.20
2017-05-15T11:19:15.133Z,8.13
2017-05-15T11:21:45.852Z,4.27
2017-05-15T11:24:16.367Z,9.33
2017-05-15T11:26:48.020Z,4.18
2017-05-15T11:29:18.627Z,5.90
2017-05-15T11:31:50.016Z,4.20
2017-05-15T11:34:20.579Z,3.92
2017-05-15T11:36:51.496Z,4.85
2017-05-15T11:39:22.167Z,9.15
2017-05-15T11:41:54.096Z,13.57
2017-05-15T11:44:24.932Z,9.03
2017-05-15T11:46:55.654Z,7.98
2017-05-15T11:49:26.286Z,9.95
2017-05-15T11:51:56.776Z,7.05
2017-05-15T11:54:27.451Z,7.02
2017-05-15T11:56:58.348Z,8.20
2017-05-15T11:59:29.320Z,6.53
2017-05-15T12:01:59.932Z,5.52
2017-05-15T12:04:30.783Z,5.43
2017-05-15T12:07:01.469Z,4.60
2017-05-15T12:09:32.423Z,5.05
2017-05-15T12:12:03.485Z,4.55
2017-05-15T12:14:34.117Z,3.13
2017-05-15T12:17:04.878Z,5.73
2017-05-15T12:19:35.262Z,6.52
2017-05-15T12:22:05.901Z,7.98
2017-05-15T12:24:36.684Z,6.15
2017-05-15T12:27:08.228Z,5.40
2017-05-15T12:29:39.103Z,7.53
2017-05-15T12:32:09.770Z,6.40
2017-05-15T12:34:40.473Z,6.10
2017-05-15T12:37:11.295Z,6.35
2017-05-15T12:39:41.935Z,8.80
2017-05-15T12:42:12.606Z,5.97
2017-05-15T12:44:43.203Z,4.68
2017-05-15T12:47:13.499Z,8.30
2017-05-15T12:49:44.490Z,5.75
2017-05-15T12:52:15.398Z,5.08
2017-05-15T12:54:46.128Z,7.52
2017-05-15T12:57:17.826Z,6.60
2017-05-15T12:59:48.461Z,5.78
2017-05-15T13:02:18.994Z,7.67
2017-05-15T13:04:49.664Z,9.63
2017-05-15T13:07:20.266Z,6.03
2017-05-15T13:09:51.053Z,8.75
2017-05-15T13:12:21.926Z,8.93
2017-05-15T13:14:52.521Z,8.20
2017-05-15T13:17:23.296Z,5.83
2017-05-15T13:19:53.749Z,6.40
2017-05-15T13:22:24.248Z,6.72
2017-05-15T13:24:55.327Z,7.92
2017-05-15T13:27:27.026Z,11.08
2017-05-15T13:29:57.599Z,8.55
2017-05-15T13:32:28.304Z,13.58
2017-05-15T13:34:58.944Z,7.67
2017-05-15T13:37:29.702Z,8.43
2017-05-15T13:40:00.278Z,7.87
2017-05-15T13:42:32.207Z,8.16
2017-05-15T13:45:03.073Z,7.16
2017-05-15T13:47:33.994Z,9.34
2017-05-15T13:50:04.525Z,9.74
2017-05-15T13:52:35.518Z,10.22
2017-05-15T13:55:06.149Z,6.86
2017-05-15T13:57:37.002Z,11.18
2017-05-15T14:00:07.768Z,8.22
2017-05-15T14:02:38.756Z,7.76
2017-05-15T14:05:10.717Z,8.20
2017-05-15T14:07:41.563Z,7.02
2017-05-15T14:10:12.159Z,8.76
2017-05-15T14:12:42.862Z,14.82
2017-05-15T14:15:12.986Z,9.40
2017-05-15T14:17:43.836Z,8.12
2017-05-15T14:20:14.035Z,5.60
2017-05-15T14:22:44.533Z,6.06
2017-05-15T14:25:15.171Z,5.36
2017-05-15T14:27:47.404Z,9.84
2017-05-15T14:30:19.197Z,12.56
2017-05-15T14:32:49.842Z,12.04
2017-05-15T14:35:20.574Z,9.90
2017-05-15T14:37:51.246Z,8.26
2017-05-15T14:40:22.206Z,10.96
2017-05-15T14:42:53.710Z,5.60
2017-05-15T14:45:24.431Z,9.80
2017-05-15T14:47:55.262Z,7.50
2017-05-15T14:50:26.092Z,7.06
2017-05-15T14:52:57.031Z,5.94
2017-05-15T14:55:27.553Z,4.86
2017-05-15T14:57:58.206Z,8.16
2017-05-15T15:00:29.134Z,4.12
2017-05-15T15:02:59.816Z,4.18
2017-05-15T15:05:30.398Z,6.72
2017-05-15T15:08:01.117Z,5.98
2017-05-15T15:10:31.878Z,6.14
2017-05-15T15:13:02.667Z,3.62
2017-05-15T15:15:34.159Z,4.42
2017-05-15T15:18:05.014Z,6.86
2017-05-15T15:20:35.591Z,3.56
2017-05-15T15:23:07.100Z,5.82
2017-05-15T15:25:37.716Z,6.02
2017-05-15T15:28:09.021Z,4.72
2017-05-15T15:30:40.264Z,4.52
2017-05-15T15:33:10.942Z,4.92
2017-05-15T15:35:41.565Z,6.52
2017-05-15T15:38:12.427Z,10.34
2017-05-15T15:40:42.900Z,7.10
2017-05-15T15:43:13.599Z,6.76
2017-05-15T15:45:44.169Z,5.68
2017-05-15T15:48:15.096Z,6.48
2017-05-15T15:50:45.819Z,5.84
2017-05-15T15:53:16.698Z,7.08
2017-05-15T15:55:47.389Z,9.48
2017-05-15T15:58:18.067Z,8.14
2017-05-15T16:00:48.943Z,12.86
2017-05-15T16:03:19.671Z,11.82
2017-05-15T16:05:50.237Z,8.94
2017-05-15T16:08:20.907Z,11.00
2017-05-15T16:10:51.474Z,13.60
2017-05-15T16:13:22.159Z,12.26
2017-05-15T16:15:52.991Z,14.94
2017-05-15T16:18:30.115Z,12.24
2017-05-15T16:21:00.698Z,13.36
2017-05-15T16:23:31.681Z,9.42
2017-05-15T16:26:02.446Z,10.14
2017-05-15T16:28:34.345Z,13.38
2017-05-15T16:31:05.171Z,12.08
2017-05-15T16:33:36.782Z,12.16
2017-05-15T16:36:07.784Z,10.50
2017-05-15T16:38:38.588Z,10.70
2017-05-15T16:41:09.350Z,12.84
2017-05-15T16:43:40.109Z,14.46
2017-05-15T16:46:10.877Z,12.88
2017-05-15T16:48:41.724Z,11.12
2017-05-15T16:51:12.462Z,10.30
2017-05-15T16:53:43.204Z,8.68
2017-05-15T16:56:13.684Z,7.58
2017-05-15T16:58:44.653Z,8.84
2017-05-15T17:01:15.233Z,9.88
2017-05-15T17:03:46.014Z,10.32
2017-05-15T17:06:17.597Z,7.58
2017-05-15T17:08:48.396Z,10.74
2017-05-15T17:11:19.010Z,7.64
2017-05-15T17:13:49.966Z,6.86
2017-05-15T17:16:20.644Z,5.14
2017-05-15T17:18:51.654Z,4.96
2017-05-15T17:21:22.543Z,3.20
2017-05-15T17:23:53.254Z,5.94
2017-05-15T17:26:24.111Z,4.24
2017-05-15T17:28:55.840Z,4.26
2017-05-15T17:31:26.646Z,4.92
2017-05-15T17:33:57.443Z,3.62
2017-05-15T17:36:28.379Z,7.96
2017-05-15T17:38:59.493Z,10.16
2017-05-15T17:41:30.287Z,9.82
2017-05-15T17:44:01.077Z,9.58
2017-05-15T17:46:31.981Z,11.20
2017-05-15T17:49:02.906Z,16.56
2017-05-15T17:51:34.485Z,9.18
2017-05-15T17:54:05.014Z,8.80
2017-05-15T17:56:35.701Z,12.74
2017-05-15T17:59:06.477Z,9.42
2017-05-15T18:01:37.551Z,10.28
2017-05-15T18:04:08.116Z,5.98
2017-05-15T18:06:38.798Z,5.08
2017-05-15T18:09:10.108Z,3.88
2017-05-15T18:11:40.973Z,3.76
2017-05-15T18:14:11.943Z,3.02
2017-05-15T18:16:42.625Z,3.28
2017-05-15T18:19:13.561Z,3.56
2017-05-15T18:21:51.460Z,4.98
2017-05-15T18:24:22.222Z,2.68
2017-05-15T18:26:52.971Z,2.58
2017-05-15T18:29:24.863Z,3.60
2017-05-15T18:31:55.616Z,5.50
2017-05-15T18:34:26.438Z,2.74
2017-05-15T18:36:57.328Z,3.08
2017-05-15T18:39:28.450Z,2.86
2017-05-15T18:41:59.395Z,4.02
2017-05-15T18:44:30.619Z,11.76
2017-05-15T18:47:01.434Z,8.34
2017-05-15T18:49:32.275Z,12.00
2017-05-15T18:52:02.832Z,8.16
2017-05-15T18:54:33.626Z,6.76
2017-05-15T18:57:04.248Z,6.52
2017-05-15T18:59:35.202Z,5.72
2017-05-15T19:02:06.006Z,8.20
2017-05-15T19:04:36.607Z,8.42
2017-05-15T19:07:07.429Z,6.68
2017-05-15T19:09:38.321Z,5.60
2017-05-15T19:12:08.874Z,6.06
2017-05-15T19:14:39.777Z,4.86
2017-05-15T19:17:10.714Z,4.70
2017-05-15T19:19:41.419Z,4.88
2017-05-15T19:22:12.082Z,5.50
2017-05-15T19:24:42.751Z,4.04
2017-05-15T19:27:13.451Z,4.46
2017-05-15T19:29:46.140Z,4.02
2017-05-15T19:32:16.986Z,4.20
2017-05-15T19:34:47.406Z,6.58
2017-05-15T19:37:18.251Z,5.12
2017-05-15T19:39:49.035Z,6.82
2017-05-15T19:42:19.730Z,8.10
2017-05-15T19:44:50.723Z,6.02
2017-05-15T19:47:21.517Z,5.70
2017-05-15T19:49:52.192Z,7.80
2017-05-15T19:52:22.950Z,2.46
2017-05-15T19:54:54.167Z,3.92
2017-05-15T19:57:25.059Z,3.26
2017-05-15T19:59:55.673Z,3.90
2017-05-15T20:02:26.666Z,2.68
2017-05-15T20:04:57.681Z,5.54
2017-05-15T20:07:28.364Z,4.24
2017-05-15T20:09:59.311Z,2.56
2017-05-15T20:12:30.340Z,7.06
2017-05-15T20:15:01.066Z,3.56
2017-05-15T20:17:31.472Z,3.06
2017-05-15T20:20:02.364Z,3.44
2017-05-15T20:22:33.056Z,5.04
2017-05-15T20:25:03.998Z,7.84
2017-05-15T20:27:34.743Z,2.56
2017-05-15T20:30:06.573Z,3.12
2017-05-15T20:32:37.415Z,2.86
2017-05-15T20:35:08.150Z,2.86
2017-05-15T20:37:38.830Z,5.48
2017-05-15T20:40:09.661Z,2.36
2017-05-15T20:42:40.462Z,3.06
2017-05-15T20:45:11.215Z,4.16
2017-05-15T20:47:42.201Z,3.30
2017-05-15T20:50:13.114Z,3.22
2017-05-15T20:52:43.732Z,2.86
2017-05-15T20:55:14.682Z,5.28
2017-05-15T20:57:46.150Z,5.70
2017-05-15T21:00:16.761Z,3.38
2017-05-15T21:02:47.503Z,6.26
2017-05-15T21:05:18.386Z,9.46
2017-05-15T21:07:49.229Z,8.12
2017-05-15T21:10:19.970Z,8.48
2017-05-15T21:12:50.492Z,5.98
2017-05-15T21:15:21.416Z,5.28
2017-05-15T21:17:52.565Z,5.78
2017-05-15T21:20:23.129Z,9.26
2017-05-15T21:22:53.788Z,4.06
2017-05-15T21:25:24.543Z,5.42
2017-05-15T21:27:55.236Z,3.80
2017-05-15T21:30:28.469Z,4.96
2017-05-15T21:32:59.262Z,4.54
2017-05-15T21:35:30.011Z,4.24
2017-05-15T21:38:00.968Z,4.40
2017-05-15T21:40:31.840Z,3.86
2017-05-15T21:43:02.623Z,3.92
2017-05-15T21:45:33.634Z,5.86
2017-05-15T21:48:04.184Z,3.14
2017-05-15T21:50:34.917Z,3.56
2017-05-15T21:53:06.393Z,2.28
2017-05-15T21:55:36.913Z,3.66
2017-05-15T21:58:07.246Z,2.30
2017-05-15T22:00:38.018Z,3.82
2017-05-15T22:03:08.745Z,4.06
2017-05-15T22:05:39.612Z,3.14
2017-05-15T22:08:10.289Z,4.60
2017-05-15T22:10:41.193Z,4.32
2017-05-15T22:13:11.820Z,1.80
2017-05-15T22:15:43.563Z,3.18
2017-05-15T22:18:14.263Z,2.38
2017-05-15T22:20:45.091Z,4.04
2017-05-15T22:23:15.967Z,2.70
2017-05-15T22:25:46.498Z,1.48
2017-05-15T22:28:17.025Z,1.82
2017-05-15T22:30:49.097Z,1.38
2017-05-15T22:33:20.091Z,2.40
2017-05-15T22:35:50.856Z,2.56
2017-05-15T22:38:21.550Z,3.08
2017-05-15T22:40:52.666Z,3.46
2017-05-15T22:43:23.289Z,2.48
2017-05-15T22:45:54.366Z,1.76
2017-05-15T22:48:25.287Z,2.98
2017-05-15T22:50:56.218Z,2.38
2017-05-15T22:53:27.885Z,1.60
2017-05-15T22:55:58.962Z,1.78
2017-05-15T22:58:29.577Z,1.66
2017-05-15T23:01:00.398Z,2.42
2017-05-15T23:03:31.185Z,1.70
2017-05-15T23:06:02.136Z,2.02
2017-05-15T23:08:32.947Z,1.40
2017-05-15T23:11:03.857Z,3.42
2017-05-15T23:13:34.516Z,2.30
2017-05-15T23:16:05.218Z,3.00
2017-05-15T23:18:35.846Z,3.98
2017-05-15T23:21:06.654Z,2.34
2017-05-15T23:23:37.299Z,2.68
2017-05-15T23:26:08.375Z,3.64
2017-05-15T23:28:39.447Z,2.48
2017-05-15T23:31:10.806Z,2.82
2017-05-15T23:33:41.548Z,3.12
2017-05-15T23:36:12.488Z,1.64
2017-05-15T23:38:43.416Z,1.84
2017-05-15T23:41:14.310Z,1.30
2017-05-15T23:43:45.247Z,2.44
2017-05-15T23:46:16.051Z,2.62
2017-05-15T23:48:47.031Z,3.24
2017-05-15T23:51:17.493Z,2.44
2017-05-15T23:53:48.407Z,1.44
2017-05-15T23:56:19.034Z,1.46
2017-05-15T23:58:49.973Z,4.68
